sensor_id;sensor_type;location;lat;lon;timestamp;temperature;humidity
12773;DHT22;6450;48.576;13.460;2022-07-18T00:01:02;15.80;92.50
12773;DHT22;6450;48.576;13.460;2022-07-18T00:03:29;15.90;92.20
12773;DHT22;6450;48.576;13.460;2022-07-18T00:05:56;15.90;92.10
12773;DHT22;6450;48.576;13.460;2022-07-18T00:08:25;15.80;92.40
12773;DHT22;6450;48.576;13.460;2022-07-18T00:10:52;15.80;92.30
12773;DHT22;6450;48.576;13.460;2022-07-18T00:13:19;15.80;92.30
12773;DHT22;6450;48.576;13.460;2022-07-18T00:15:46;15.80;92.40
12773;DHT22;6450;48.576;13.460;2022-07-18T00:18:12;15.80;92.20
12773;DHT22;6450;48.576;13.460;2022-07-18T00:20:39;15.80;92.30
12773;DHT22;6450;48.576;13.460;2022-07-18T00:23:08;15.80;92.20
12773;DHT22;6450;48.576;13.460;2022-07-18T00:25:36;15.80;92.50
12773;DHT22;6450;48.576;13.460;2022-07-18T00:28:03;15.70;92.80
12773;DHT22;6450;48.576;13.460;2022-07-18T00:30:30;15.70;92.70
12773;DHT22;6450;48.576;13.460;2022-07-18T00:32:57;15.60;94.10
12773;DHT22;6450;48.576;13.460;2022-07-18T00:35:24;15.60;94.50
12773;DHT22;6450;48.576;13.460;2022-07-18T00:37:51;15.50;94.80
12773;DHT22;6450;48.576;13.460;2022-07-18T00:40:18;15.50;95.30
12773;DHT22;6450;48.576;13.460;2022-07-18T00:42:47;15.50;94.90
12773;DHT22;6450;48.576;13.460;2022-07-18T00:45:14;15.40;95.10
12773;DHT22;6450;48.576;13.460;2022-07-18T00:47:41;15.40;95.30
12773;DHT22;6450;48.576;13.460;2022-07-18T00:50:09;15.30;95.40
12773;DHT22;6450;48.576;13.460;2022-07-18T00:52:37;15.30;95.50
12773;DHT22;6450;48.576;13.460;2022-07-18T00:55:05;15.20;95.90
12773;DHT22;6450;48.576;13.460;2022-07-18T00:57:32;15.10;96.60
12773;DHT22;6450;48.576;13.460;2022-07-18T01:00:00;15.10;96.60
12773;DHT22;6450;48.576;13.460;2022-07-18T01:02:45;15.00;97.00
12773;DHT22;6450;48.576;13.460;2022-07-18T01:05:12;15.00;97.20
12773;DHT22;6450;48.576;13.460;2022-07-18T01:07:39;14.90;97.00
12773;DHT22;6450;48.576;13.460;2022-07-18T01:10:07;14.90;98.00
12773;DHT22;6450;48.576;13.460;2022-07-18T01:12:34;14.80;99.90
12773;DHT22;6450;48.576;13.460;2022-07-18T01:15:04;14.80;99.90
12773;DHT22;6450;48.576;13.460;2022-07-18T01:17:31;14.80;99.90
12773;DHT22;6450;48.576;13.460;2022-07-18T01:19:58;14.70;99.90
12773;DHT22;6450;48.576;13.460;2022-07-18T01:22:27;14.70;99.90
12773;DHT22;6450;48.576;13.460;2022-07-18T01:24:54;14.60;99.90
12773;DHT22;6450;48.576;13.460;2022-07-18T01:27:21;14.60;99.90
12773;DHT22;6450;48.576;13.460;2022-07-18T01:29:50;14.50;99.90
12773;DHT22;6450;48.576;13.460;2022-07-18T01:32:18;14.40;99.90
12773;DHT22;6450;48.576;13.460;2022-07-18T01:34:46;14.30;99.90
12773;DHT22;6450;48.576;13.460;2022-07-18T01:37:13;14.30;99.90
12773;DHT22;6450;48.576;13.460;2022-07-18T01:39:43;14.30;99.90
12773;DHT22;6450;48.576;13.460;2022-07-18T01:42:11;14.40;99.90
12773;DHT22;6450;48.576;13.460;2022-07-18T01:44:39;14.30;99.90
12773;DHT22;6450;48.576;13.460;2022-07-18T01:47:08;14.30;99.90
12773;DHT22;6450;48.576;13.460;2022-07-18T01:49:36;14.30;99.90
12773;DHT22;6450;48.576;13.460;2022-07-18T01:52:04;14.30;99.90
12773;DHT22;6450;48.576;13.460;2022-07-18T01:54:33;14.30;99.90
12773;DHT22;6450;48.576;13.460;2022-07-18T01:57:03;14.30;99.90
12773;DHT22;6450;48.576;13.460;2022-07-18T01:59:31;14.10;99.90
12773;DHT22;6450;48.576;13.460;2022-07-18T02:01:58;14.10;99.90
12773;DHT22;6450;48.576;13.460;2022-07-18T02:04:25;14.00;99.90
12773;DHT22;6450;48.576;13.460;2022-07-18T02:07:06;13.90;99.90
12773;DHT22;6450;48.576;13.460;2022-07-18T02:09:33;13.90;99.90
12773;DHT22;6450;48.576;13.460;2022-07-18T02:12:01;13.90;99.90
12773;DHT22;6450;48.576;13.460;2022-07-18T02:14:28;13.80;99.90
12773;DHT22;6450;48.576;13.460;2022-07-18T02:16:55;13.80;99.90
12773;DHT22;6450;48.576;13.460;2022-07-18T02:19:22;13.90;99.90
12773;DHT22;6450;48.576;13.460;2022-07-18T02:21:50;13.90;99.90
12773;DHT22;6450;48.576;13.460;2022-07-18T02:24:17;13.90;99.90
12773;DHT22;6450;48.576;13.460;2022-07-18T02:26:44;13.80;99.90
12773;DHT22;6450;48.576;13.460;2022-07-18T02:29:12;13.80;99.90
12773;DHT22;6450;48.576;13.460;2022-07-18T02:31:39;13.70;99.90
12773;DHT22;6450;48.576;13.460;2022-07-18T02:34:06;13.70;99.90
12773;DHT22;6450;48.576;13.460;2022-07-18T02:36:35;13.70;99.90
12773;DHT22;6450;48.576;13.460;2022-07-18T02:39:03;13.70;99.90
12773;DHT22;6450;48.576;13.460;2022-07-18T02:41:30;13.60;99.90
12773;DHT22;6450;48.576;13.460;2022-07-18T02:43:57;13.50;99.90
12773;DHT22;6450;48.576;13.460;2022-07-18T02:46:25;13.50;99.90
12773;DHT22;6450;48.576;13.460;2022-07-18T02:48:52;13.50;99.90
12773;DHT22;6450;48.576;13.460;2022-07-18T02:51:20;13.60;99.90
12773;DHT22;6450;48.576;13.460;2022-07-18T02:53:46;13.50;99.90
12773;DHT22;6450;48.576;13.460;2022-07-18T02:56:13;13.40;99.90
12773;DHT22;6450;48.576;13.460;2022-07-18T02:58:40;13.40;99.90
12773;DHT22;6450;48.576;13.460;2022-07-18T03:01:07;13.30;99.90
12773;DHT22;6450;48.576;13.460;2022-07-18T03:03:36;13.30;99.90
12773;DHT22;6450;48.576;13.460;2022-07-18T03:06:03;13.30;99.90
12773;DHT22;6450;48.576;13.460;2022-07-18T03:08:30;13.30;99.90
12773;DHT22;6450;48.576;13.460;2022-07-18T03:10:57;13.30;99.90
12773;DHT22;6450;48.576;13.460;2022-07-18T03:13:24;13.30;99.90
12773;DHT22;6450;48.576;13.460;2022-07-18T03:15:51;13.20;99.90
12773;DHT22;6450;48.576;13.460;2022-07-18T03:18:18;13.30;99.90
12773;DHT22;6450;48.576;13.460;2022-07-18T03:20:49;13.20;99.90
12773;DHT22;6450;48.576;13.460;2022-07-18T03:23:16;13.10;99.90
12773;DHT22;6450;48.576;13.460;2022-07-18T03:25:43;13.10;99.90
12773;DHT22;6450;48.576;13.460;2022-07-18T03:28:10;13.10;99.90
12773;DHT22;6450;48.576;13.460;2022-07-18T03:30:37;13.10;99.90
12773;DHT22;6450;48.576;13.460;2022-07-18T03:33:04;13.10;99.90
12773;DHT22;6450;48.576;13.460;2022-07-18T03:35:31;13.10;99.90
12773;DHT22;6450;48.576;13.460;2022-07-18T03:37:59;13.10;99.90
12773;DHT22;6450;48.576;13.460;2022-07-18T03:40:26;13.20;99.90
12773;DHT22;6450;48.576;13.460;2022-07-18T03:42:53;13.20;99.90
12773;DHT22;6450;48.576;13.460;2022-07-18T03:45:20;13.20;99.90
12773;DHT22;6450;48.576;13.460;2022-07-18T03:47:47;13.30;99.90
12773;DHT22;6450;48.576;13.460;2022-07-18T03:50:14;13.50;99.90
12773;DHT22;6450;48.576;13.460;2022-07-18T03:52:41;13.60;99.90
12773;DHT22;6450;48.576;13.460;2022-07-18T03:55:10;13.80;99.90
12773;DHT22;6450;48.576;13.460;2022-07-18T03:57:37;13.90;99.90
12773;DHT22;6450;48.576;13.460;2022-07-18T04:00:06;14.00;99.90
12773;DHT22;6450;48.576;13.460;2022-07-18T04:02:38;14.20;99.90
12773;DHT22;6450;48.576;13.460;2022-07-18T04:05:05;14.40;99.90
